Rosinton, Alabama
Current Conditions -  °F | °C
As of 5:55 PM on Monday 22 Dec 2014 (Local Time) from KCQF Reporting Station
Scattered Clouds Scattered Clouds  
Wind Chill: 64°   Ceiling: Unl
Heat Index: 64°   Visibility: 10mi
Dew Point: 64°   Wind: 7mph
Humidity: 100%   Direction: 180°S
Pressure: 29.78"   Gusts: NA
Location:  30.6097°N, 87.6111°W
Report Text: KCQF 222355Z AUTO 18006KT 10SM SCT050 18/18 A2978 RMK AO2
Loading
Personal Weather Stations






























Interactive Weather Map New forecast layout! Learn more

10-Day Weather Forecast

Advertisements
Track Severe Weather on mobile